sensor_id;sensor_type;location;lat;lon;timestamp;pressure;altitude;pressure_sealevel;temperature;humidity
76229;BME280;65021;53.174;18.160;2023-12-20T00:00:10;100107.35;;;5.92;86.36
76229;BME280;65021;53.174;18.160;2023-12-20T00:02:56;100105.14;;;5.92;86.27
76229;BME280;65021;53.174;18.160;2023-12-20T00:05:23;100099.08;;;5.91;86.40
76229;BME280;65021;53.174;18.160;2023-12-20T00:07:50;100100.84;;;5.92;86.30
76229;BME280;65021;53.174;18.160;2023-12-20T00:10:16;100102.65;;;5.93;86.19
76229;BME280;65021;53.174;18.160;2023-12-20T00:12:43;100104.19;;;5.93;86.28
76229;BME280;65021;53.174;18.160;2023-12-20T00:15:09;100099.31;;;5.93;86.33
76229;BME280;65021;53.174;18.160;2023-12-20T00:17:36;100103.29;;;5.94;86.39
76229;BME280;65021;53.174;18.160;2023-12-20T00:20:03;100099.65;;;5.94;86.41
76229;BME280;65021;53.174;18.160;2023-12-20T00:22:30;100100.16;;;5.94;86.33
76229;BME280;65021;53.174;18.160;2023-12-20T00:24:56;100102.31;;;5.94;86.39
76229;BME280;65021;53.174;18.160;2023-12-20T00:27:23;100094.89;;;5.95;86.36
76229;BME280;65021;53.174;18.160;2023-12-20T00:29:49;100091.77;;;5.96;86.31
76229;BME280;65021;53.174;18.160;2023-12-20T00:32:17;100088.66;;;5.97;86.31
76229;BME280;65021;53.174;18.160;2023-12-20T00:34:43;100086.46;;;5.97;86.25
76229;BME280;65021;53.174;18.160;2023-12-20T00:37:10;100078.98;;;5.97;86.26
76229;BME280;65021;53.174;18.160;2023-12-20T00:39:37;100081.42;;;5.98;86.30
76229;BME280;65021;53.174;18.160;2023-12-20T00:42:04;100079.45;;;5.98;86.29
76229;BME280;65021;53.174;18.160;2023-12-20T00:44:30;100078.18;;;5.98;86.17
76229;BME280;65021;53.174;18.160;2023-12-20T00:46:57;100077.16;;;5.98;86.22
76229;BME280;65021;53.174;18.160;2023-12-20T00:49:23;100080.71;;;5.98;86.31
76229;BME280;65021;53.174;18.160;2023-12-20T00:51:50;100084.88;;;5.99;86.26
76229;BME280;65021;53.174;18.160;2023-12-20T00:54:19;100085.61;;;6.00;86.21
76229;BME280;65021;53.174;18.160;2023-12-20T00:56:45;100085.57;;;6.00;86.40
76229;BME280;65021;53.174;18.160;2023-12-20T00:59:12;100078.91;;;6.01;86.32
76229;BME280;65021;53.174;18.160;2023-12-20T01:01:38;100079.34;;;6.02;86.26
76229;BME280;65021;53.174;18.160;2023-12-20T01:04:05;100079.29;;;6.02;86.19
76229;BME280;65021;53.174;18.160;2023-12-20T01:06:31;100076.89;;;6.02;86.25
76229;BME280;65021;53.174;18.160;2023-12-20T01:08:58;100072.07;;;6.02;86.24
76229;BME280;65021;53.174;18.160;2023-12-20T01:11:24;100068.69;;;6.03;86.39
76229;BME280;65021;53.174;18.160;2023-12-20T01:13:51;100069.01;;;6.03;86.38
76229;BME280;65021;53.174;18.160;2023-12-20T01:16:17;100061.92;;;6.04;86.35
76229;BME280;65021;53.174;18.160;2023-12-20T01:18:44;100059.48;;;6.04;86.24
76229;BME280;65021;53.174;18.160;2023-12-20T01:21:11;100059.22;;;6.05;86.25
76229;BME280;65021;53.174;18.160;2023-12-20T01:23:38;100058.08;;;6.06;86.29
76229;BME280;65021;53.174;18.160;2023-12-20T01:26:04;100055.00;;;6.06;86.31
76229;BME280;65021;53.174;18.160;2023-12-20T01:28:31;100057.36;;;6.06;86.27
76229;BME280;65021;53.174;18.160;2023-12-20T01:30:58;100057.21;;;6.06;86.34
76229;BME280;65021;53.174;18.160;2023-12-20T01:33:24;100058.46;;;6.07;86.21
76229;BME280;65021;53.174;18.160;2023-12-20T01:35:51;100051.83;;;6.06;86.32
76229;BME280;65021;53.174;18.160;2023-12-20T01:38:17;100050.58;;;6.08;86.33
76229;BME280;65021;53.174;18.160;2023-12-20T01:40:45;100046.59;;;6.08;86.29
76229;BME280;65021;53.174;18.160;2023-12-20T01:43:11;100046.60;;;6.09;86.32
76229;BME280;65021;53.174;18.160;2023-12-20T01:45:39;100039.73;;;6.10;86.33
76229;BME280;65021;53.174;18.160;2023-12-20T01:48:07;100037.98;;;6.10;86.29
76229;BME280;65021;53.174;18.160;2023-12-20T01:50:36;100030.79;;;6.09;86.22
76229;BME280;65021;53.174;18.160;2023-12-20T01:53:05;100038.08;;;6.09;86.20
76229;BME280;65021;53.174;18.160;2023-12-20T01:55:34;100029.98;;;6.09;86.22
76229;BME280;65021;53.174;18.160;2023-12-20T01:58:02;100029.88;;;6.09;86.26
76229;BME280;65021;53.174;18.160;2023-12-20T02:00:30;100027.54;;;6.10;86.31
76229;BME280;65021;53.174;18.160;2023-12-20T02:03:03;100024.45;;;6.10;86.29
76229;BME280;65021;53.174;18.160;2023-12-20T02:05:30;100020.52;;;6.10;86.27
76229;BME280;65021;53.174;18.160;2023-12-20T02:07:57;100025.60;;;6.10;86.25
76229;BME280;65021;53.174;18.160;2023-12-20T02:10:25;100027.13;;;6.10;86.25
76229;BME280;65021;53.174;18.160;2023-12-20T02:12:51;100032.52;;;6.11;86.29
76229;BME280;65021;53.174;18.160;2023-12-20T02:15:18;100030.36;;;6.10;86.31
76229;BME280;65021;53.174;18.160;2023-12-20T02:17:46;100024.88;;;6.10;86.31
76229;BME280;65021;53.174;18.160;2023-12-20T02:20:13;100020.45;;;6.10;86.38
76229;BME280;65021;53.174;18.160;2023-12-20T02:22:40;100014.70;;;6.10;86.30
76229;BME280;65021;53.174;18.160;2023-12-20T02:25:07;100014.86;;;6.10;86.41
76229;BME280;65021;53.174;18.160;2023-12-20T02:27:34;100015.16;;;6.09;86.32
76229;BME280;65021;53.174;18.160;2023-12-20T02:30:02;100013.48;;;6.10;86.43
76229;BME280;65021;53.174;18.160;2023-12-20T02:32:29;100012.30;;;6.10;86.41
76229;BME280;65021;53.174;18.160;2023-12-20T02:34:56;100009.33;;;6.10;86.33
76229;BME280;65021;53.174;18.160;2023-12-20T02:37:23;100006.01;;;6.11;86.41
76229;BME280;65021;53.174;18.160;2023-12-20T02:39:49;100005.75;;;6.10;86.44
76229;BME280;65021;53.174;18.160;2023-12-20T02:42:16;100003.56;;;6.09;86.47
76229;BME280;65021;53.174;18.160;2023-12-20T02:44:43;100002.27;;;6.09;86.57
76229;BME280;65021;53.174;18.160;2023-12-20T02:47:09;100001.13;;;6.08;86.57
76229;BME280;65021;53.174;18.160;2023-12-20T02:49:36;100006.48;;;6.06;86.60
76229;BME280;65021;53.174;18.160;2023-12-20T02:52:03;100002.11;;;6.06;86.69
76229;BME280;65021;53.174;18.160;2023-12-20T02:54:29;100002.65;;;6.05;86.57
76229;BME280;65021;53.174;18.160;2023-12-20T02:56:56;99999.55;;;6.04;86.61
76229;BME280;65021;53.174;18.160;2023-12-20T02:59:26;100000.36;;;6.03;86.69
76229;BME280;65021;53.174;18.160;2023-12-20T03:01:52;99996.44;;;6.02;86.52
76229;BME280;65021;53.174;18.160;2023-12-20T03:04:19;100000.99;;;6.01;86.69
76229;BME280;65021;53.174;18.160;2023-12-20T03:06:45;99994.47;;;6.00;86.68
76229;BME280;65021;53.174;18.160;2023-12-20T03:09:12;99988.39;;;5.99;86.72
76229;BME280;65021;53.174;18.160;2023-12-20T03:11:40;99989.91;;;5.98;86.71
76229;BME280;65021;53.174;18.160;2023-12-20T03:14:06;99986.30;;;5.96;86.70
76229;BME280;65021;53.174;18.160;2023-12-20T03:16:33;99987.36;;;5.96;86.80
76229;BME280;65021;53.174;18.160;2023-12-20T03:18:59;99984.02;;;5.96;86.82
76229;BME280;65021;53.174;18.160;2023-12-20T03:21:26;99985.50;;;5.95;86.80
76229;BME280;65021;53.174;18.160;2023-12-20T03:23:52;99990.36;;;5.95;86.91
76229;BME280;65021;53.174;18.160;2023-12-20T03:26:19;99986.19;;;5.94;86.89
76229;BME280;65021;53.174;18.160;2023-12-20T03:28:45;99989.33;;;5.94;86.94
76229;BME280;65021;53.174;18.160;2023-12-20T03:31:12;99987.27;;;5.94;86.94
76229;BME280;65021;53.174;18.160;2023-12-20T03:33:39;99988.04;;;5.93;87.08
76229;BME280;65021;53.174;18.160;2023-12-20T03:36:05;99982.39;;;5.93;87.04
76229;BME280;65021;53.174;18.160;2023-12-20T03:38:32;99983.31;;;5.93;86.94
76229;BME280;65021;53.174;18.160;2023-12-20T03:40:59;99980.67;;;5.92;87.01
76229;BME280;65021;53.174;18.160;2023-12-20T03:43:25;99979.38;;;5.91;87.12
76229;BME280;65021;53.174;18.160;2023-12-20T03:45:52;99982.83;;;5.91;87.14
76229;BME280;65021;53.174;18.160;2023-12-20T03:48:18;99981.70;;;5.91;87.10
76229;BME280;65021;53.174;18.160;2023-12-20T03:50:45;99983.05;;;5.91;86.89
76229;BME280;65021;53.174;18.160;2023-12-20T03:53:11;99983.73;;;5.91;86.83
76229;BME280;65021;53.174;18.160;2023-12-20T03:55:38;99981.33;;;5.91;87.05
76229;BME280;65021;53.174;18.160;2023-12-20T03:58:07;99983.02;;;5.91;86.94
76229;BME280;65021;53.174;18.160;2023-12-20T04:00:34;99981.39;;;5.92;87.01
76229;BME280;65021;53.174;18.160;2023-12-20T04:03:01;99986.16;;;5.92;87.11
76229;BME280;65021;53.174;18.160;2023-12-20T04:05:27;99981.98;;;5.92;86.98
76229;BME280;65021;53.174;18.160;2023-12-20T04:07:54;99983.36;;;5.92;86.97
76229;BME280;65021;53.174;18.160;2023-12-20T04:10:21;99987.61;;;5.92;86.96
76229;BME280;65021;53.174;18.160;2023-12-20T04:12:48;99983.71;;;5.92;86.78
76229;BME280;65021;53.174;18.160;2023-12-20T04:15:14;99983.23;;;5.92;87.06
76229;BME280;65021;53.174;18.160;2023-12-20T04:17:41;99985.30;;;5.92;86.88
76229;BME280;65021;53.174;18.160;2023-12-20T04:20:08;99981.89;;;5.91;86.72
76229;BME280;65021;53.174;18.160;2023-12-20T04:22:34;99979.76;;;5.90;86.83
76229;BME280;65021;53.174;18.160;2023-12-20T04:25:01;99978.02;;;5.90;86.77
76229;BME280;65021;53.174;18.160;2023-12-20T04:27:28;99979.65;;;5.90;86.62
76229;BME280;65021;53.174;18.160;2023-12-20T04:29:55;99981.64;;;5.89;86.75
76229;BME280;65021;53.174;18.160;2023-12-20T04:32:21;99983.36;;;5.88;86.71
76229;BME280;65021;53.174;18.160;2023-12-20T04:34:48;99981.14;;;5.87;86.68
76229;BME280;65021;53.174;18.160;2023-12-20T04:37:14;99979.80;;;5.87;86.76
76229;BME280;65021;53.174;18.160;2023-12-20T04:39:41;99981.23;;;5.86;86.63
76229;BME280;65021;53.174;18.160;2023-12-20T04:42:08;99980.45;;;5.86;86.62
76229;BME280;65021;53.174;18.160;2023-12-20T04:44:35;99987.11;;;5.86;86.62
76229;BME280;65021;53.174;18.160;2023-12-20T04:47:03;99987.27;;;5.86;86.58
76229;BME280;65021;53.174;18.160;2023-12-20T04:49:30;99985.89;;;5.86;86.65
76229;BME280;65021;53.174;18.160;2023-12-20T04:51:56;99984.65;;;5.85;86.54
76229;BME280;65021;53.174;18.160;2023-12-20T04:54:23;99988.08;;;5.85;86.64
76229;BME280;65021;53.174;18.160;2023-12-20T04:56:50;99993.88;;;5.85;86.49
76229;BME280;65021;53.174;18.160;2023-12-20T04:59:16;99992.41;;;5.84;86.58
76229;BME280;65021;53.174;18.160;2023-12-20T05:01:43;99991.20;;;5.85;86.53
76229;BME280;65021;53.174;18.160;2023-12-20T05:04:09;99996.12;;;5.85;86.52
76229;BME280;65021;53.174;18.160;2023-12-20T05:06:36;99992.38;;;5.85;86.52
76229;BME280;65021;53.174;18.160;2023-12-20T05:09:02;100000.27;;;5.85;86.51
76229;BME280;65021;53.174;18.160;2023-12-20T05:11:29;100002.96;;;5.84;86.56
76229;BME280;65021;53.174;18.160;2023-12-20T05:13:56;100000.73;;;5.83;86.44
76229;BME280;65021;53.174;18.160;2023-12-20T05:16:22;99997.27;;;5.81;86.38
76229;BME280;65021;53.174;18.160;2023-12-20T05:18:49;99995.65;;;5.79;86.47
76229;BME280;65021;53.174;18.160;2023-12-20T05:21:16;99995.73;;;5.79;86.37
76229;BME280;65021;53.174;18.160;2023-12-20T05:23:43;99991.20;;;5.77;86.32
76229;BME280;65021;53.174;18.160;2023-12-20T05:26:09;99990.09;;;5.74;86.23
76229;BME280;65021;53.174;18.160;2023-12-20T05:28:36;99988.79;;;5.71;86.06
76229;BME280;65021;53.174;18.160;2023-12-20T05:31:03;99992.55;;;5.69;86.03
76229;BME280;65021;53.174;18.160;2023-12-20T05:33:30;99989.84;;;5.64;86.10
76229;BME280;65021;53.174;18.160;2023-12-20T05:35:56;99988.31;;;5.60;86.05
76229;BME280;65021;53.174;18.160;2023-12-20T05:38:23;99990.23;;;5.54;86.08
76229;BME280;65021;53.174;18.160;2023-12-20T05:40:49;99997.33;;;5.47;86.07
76229;BME280;65021;53.174;18.160;2023-12-20T05:43:16;100000.02;;;5.41;86.09
76229;BME280;65021;53.174;18.160;2023-12-20T05:45:42;99995.42;;;5.35;86.12
76229;BME280;65021;53.174;18.160;2023-12-20T05:48:09;99992.63;;;5.28;85.89
76229;BME280;65021;53.174;18.160;2023-12-20T05:50:36;99995.02;;;5.20;86.06
76229;BME280;65021;53.174;18.160;2023-12-20T05:53:03;99996.73;;;5.15;86.15
76229;BME280;65021;53.174;18.160;2023-12-20T05:55:30;99989.46;;;5.08;86.27
76229;BME280;65021;53.174;18.160;2023-12-20T05:57:56;99991.56;;;5.01;85.87
76229;BME280;65021;53.174;18.160;2023-12-20T06:00:23;99994.30;;;4.93;85.78
76229;BME280;65021;53.174;18.160;2023-12-20T06:02:49;99993.40;;;4.85;85.46
76229;BME280;65021;53.174;18.160;2023-12-20T06:05:16;99993.55;;;4.76;85.40
76229;BME280;65021;53.174;18.160;2023-12-20T06:07:42;99992.29;;;4.69;85.66
76229;BME280;65021;53.174;18.160;2023-12-20T06:10:09;99988.64;;;4.60;85.42
76229;BME280;65021;53.174;18.160;2023-12-20T06:12:36;99984.29;;;4.51;85.43
76229;BME280;65021;53.174;18.160;2023-12-20T06:15:03;99980.91;;;4.43;85.59
76229;BME280;65021;53.174;18.160;2023-12-20T06:17:29;99980.02;;;4.35;85.45
76229;BME280;65021;53.174;18.160;2023-12-20T06:19:59;99979.84;;;4.26;85.68
76229;BME280;65021;53.174;18.160;2023-12-20T06:22:26;99988.40;;;4.19;85.77
76229;BME280;65021;53.174;18.160;2023-12-20T06:24:53;99989.16;;;4.11;85.77
76229;BME280;65021;53.174;18.160;2023-12-20T06:27:19;99989.06;;;4.05;85.79
76229;BME280;65021;53.174;18.160;2023-12-20T06:29:46;99986.98;;;3.98;86.05
76229;BME280;65021;53.174;18.160;2023-12-20T06:32:13;99989.64;;;3.90;85.49
76229;BME280;65021;53.174;18.160;2023-12-20T06:34:39;99990.19;;;3.85;85.57
76229;BME280;65021;53.174;18.160;2023-12-20T06:37:06;99992.98;;;3.77;85.63
76229;BME280;65021;53.174;18.160;2023-12-20T06:39:32;99999.20;;;3.69;85.46
76229;BME280;65021;53.174;18.160;2023-12-20T06:42:00;99999.84;;;3.63;85.67
76229;BME280;65021;53.174;18.160;2023-12-20T06:44:27;99996.33;;;3.56;85.81
76229;BME280;65021;53.174;18.160;2023-12-20T06:46:53;100002.67;;;3.51;85.61
76229;BME280;65021;53.174;18.160;2023-12-20T06:49:20;100003.38;;;3.43;85.80
76229;BME280;65021;53.174;18.160;2023-12-20T06:51:47;100000.23;;;3.37;85.70
76229;BME280;65021;53.174;18.160;2023-12-20T06:54:13;99995.41;;;3.31;85.81
76229;BME280;65021;53.174;18.160;2023-12-20T06:56:40;99986.17;;;3.19;85.75
76229;BME280;65021;53.174;18.160;2023-12-20T06:59:07;99986.64;;;3.08;85.74
76229;BME280;65021;53.174;18.160;2023-12-20T07:01:34;99987.45;;;2.99;85.98
76229;BME280;65021;53.174;18.160;2023-12-20T07:04:00;99994.10;;;2.98;85.88
76229;BME280;65021;53.174;18.160;2023-12-20T07:06:27;99996.25;;;2.98;85.99
76229;BME280;65021;53.174;18.160;2023-12-20T07:08:54;100000.69;;;3.00;86.24
76229;BME280;65021;53.174;18.160;2023-12-20T07:11:20;100004.66;;;3.03;86.54
76229;BME280;65021;53.174;18.160;2023-12-20T07:13:47;100005.69;;;3.03;86.29
76229;BME280;65021;53.174;18.160;2023-12-20T07:16:14;100009.19;;;3.04;86.70
76229;BME280;65021;53.174;18.160;2023-12-20T07:18:40;100009.66;;;3.06;86.84
76229;BME280;65021;53.174;18.160;2023-12-20T07:21:07;100005.56;;;3.04;86.43
76229;BME280;65021;53.174;18.160;2023-12-20T07:23:34;100009.75;;;3.01;86.40
76229;BME280;65021;53.174;18.160;2023-12-20T07:26:01;100011.80;;;2.99;86.49
76229;BME280;65021;53.174;18.160;2023-12-20T07:28:27;100013.85;;;2.99;86.43
76229;BME280;65021;53.174;18.160;2023-12-20T07:30:54;100016.03;;;3.01;86.50
76229;BME280;65021;53.174;18.160;2023-12-20T07:33:21;100016.85;;;3.02;86.60
76229;BME280;65021;53.174;18.160;2023-12-20T07:35:48;100015.64;;;3.01;86.26
76229;BME280;65021;53.174;18.160;2023-12-20T07:38:15;100018.14;;;3.01;86.47
76229;BME280;65021;53.174;18.160;2023-12-20T07:40:41;100013.20;;;3.01;86.38
76229;BME280;65021;53.174;18.160;2023-12-20T07:43:08;100016.45;;;3.03;86.43
76229;BME280;65021;53.174;18.160;2023-12-20T07:45:37;100013.23;;;3.06;86.59
76229;BME280;65021;53.174;18.160;2023-12-20T07:48:05;100009.78;;;3.10;86.60
76229;BME280;65021;53.174;18.160;2023-12-20T07:50:32;100007.39;;;3.15;86.70
76229;BME280;65021;53.174;18.160;2023-12-20T07:52:59;100005.81;;;3.20;86.73
76229;BME280;65021;53.174;18.160;2023-12-20T07:55:27;100006.44;;;3.24;86.66
76229;BME280;65021;53.174;18.160;2023-12-20T07:57:54;100000.31;;;3.28;86.88
76229;BME280;65021;53.174;18.160;2023-12-20T08:00:20;99994.43;;;3.31;86.81
76229;BME280;65021;53.174;18.160;2023-12-20T08:02:47;99996.67;;;3.35;86.49
76229;BME280;65021;53.174;18.160;2023-12-20T08:05:13;99998.96;;;3.38;86.64
76229;BME280;65021;53.174;18.160;2023-12-20T08:07:40;100004.21;;;3.43;86.78
76229;BME280;65021;53.174;18.160;2023-12-20T08:10:10;100004.11;;;3.48;86.80
76229;BME280;65021;53.174;18.160;2023-12-20T08:12:42;100005.70;;;3.51;86.88
76229;BME280;65021;53.174;18.160;2023-12-20T08:15:09;100004.06;;;3.57;86.92
76229;BME280;65021;53.174;18.160;2023-12-20T08:17:39;100003.39;;;3.62;86.55
76229;BME280;65021;53.174;18.160;2023-12-20T08:20:05;99997.63;;;3.67;86.74
76229;BME280;65021;53.174;18.160;2023-12-20T08:22:32;99993.55;;;3.72;86.66
76229;BME280;65021;53.174;18.160;2023-12-20T08:24:59;99993.36;;;3.76;86.71
76229;BME280;65021;53.174;18.160;2023-12-20T08:27:25;99995.25;;;3.78;86.81
76229;BME280;65021;53.174;18.160;2023-12-20T08:29:52;99992.98;;;3.81;86.81
76229;BME280;65021;53.174;18.160;2023-12-20T08:32:19;99991.33;;;3.84;86.77
76229;BME280;65021;53.174;18.160;2023-12-20T08:34:45;99992.02;;;3.92;86.80
76229;BME280;65021;53.174;18.160;2023-12-20T08:37:12;99993.14;;;4.03;86.64
76229;BME280;65021;53.174;18.160;2023-12-20T08:39:39;99993.20;;;4.13;86.77
76229;BME280;65021;53.174;18.160;2023-12-20T08:42:06;99995.25;;;4.19;86.99
76229;BME280;65021;53.174;18.160;2023-12-20T08:44:32;99998.52;;;4.21;86.84
76229;BME280;65021;53.174;18.160;2023-12-20T08:46:59;99998.56;;;4.21;86.76
76229;BME280;65021;53.174;18.160;2023-12-20T08:49:27;99996.50;;;4.20;86.58
76229;BME280;65021;53.174;18.160;2023-12-20T08:51:54;99994.20;;;4.20;86.21
76229;BME280;65021;53.174;18.160;2023-12-20T08:54:21;99991.54;;;4.20;86.29
76229;BME280;65021;53.174;18.160;2023-12-20T08:56:47;99991.52;;;4.19;85.93
76229;BME280;65021;53.174;18.160;2023-12-20T08:59:14;99988.40;;;4.19;86.20
76229;BME280;65021;53.174;18.160;2023-12-20T09:01:40;99986.95;;;4.19;86.15
76229;BME280;65021;53.174;18.160;2023-12-20T09:04:07;99988.48;;;4.17;86.26
76229;BME280;65021;53.174;18.160;2023-12-20T09:06:33;99991.54;;;4.18;86.29
76229;BME280;65021;53.174;18.160;2023-12-20T09:09:00;99989.91;;;4.20;86.28
76229;BME280;65021;53.174;18.160;2023-12-20T09:11:27;99981.21;;;4.24;86.12
76229;BME280;65021;53.174;18.160;2023-12-20T09:13:54;99976.46;;;4.26;86.07
76229;BME280;65021;53.174;18.160;2023-12-20T09:16:21;99967.20;;;4.30;85.63
76229;BME280;65021;53.174;18.160;2023-12-20T09:18:47;99970.06;;;4.39;85.84
76229;BME280;65021;53.174;18.160;2023-12-20T09:21:14;99974.29;;;4.44;85.85
76229;BME280;65021;53.174;18.160;2023-12-20T09:23:40;99974.29;;;4.48;85.69
76229;BME280;65021;53.174;18.160;2023-12-20T09:26:07;99974.21;;;4.56;85.38
76229;BME280;65021;53.174;18.160;2023-12-20T09:28:34;99964.85;;;4.68;85.36
76229;BME280;65021;53.174;18.160;2023-12-20T09:31:04;99966.54;;;4.81;85.17
76229;BME280;65021;53.174;18.160;2023-12-20T09:33:31;99963.45;;;4.90;84.99
76229;BME280;65021;53.174;18.160;2023-12-20T09:35:58;99956.74;;;4.97;84.89
76229;BME280;65021;53.174;18.160;2023-12-20T09:38:26;99958.08;;;5.08;84.52
76229;BME280;65021;53.174;18.160;2023-12-20T09:40:52;99957.04;;;5.15;84.33
76229;BME280;65021;53.174;18.160;2023-12-20T09:43:20;99958.05;;;5.19;83.35
76229;BME280;65021;53.174;18.160;2023-12-20T09:45:53;99962.27;;;5.27;83.29
76229;BME280;65021;53.174;18.160;2023-12-20T09:48:20;99959.45;;;5.37;83.22
76229;BME280;65021;53.174;18.160;2023-12-20T09:50:47;99952.74;;;5.40;82.65
76229;BME280;65021;53.174;18.160;2023-12-20T09:53:17;99944.21;;;5.41;82.13
76229;BME280;65021;53.174;18.160;2023-12-20T09:55:44;99941.65;;;5.38;81.72
76229;BME280;65021;53.174;18.160;2023-12-20T09:58:11;99937.80;;;5.38;81.62
76229;BME280;65021;53.174;18.160;2023-12-20T10:00:38;99933.14;;;5.45;81.97
76229;BME280;65021;53.174;18.160;2023-12-20T10:03:06;99929.69;;;5.53;81.74
76229;BME280;65021;53.174;18.160;2023-12-20T10:05:33;99919.75;;;5.58;81.30
76229;BME280;65021;53.174;18.160;2023-12-20T10:08:00;99912.27;;;5.67;81.27
76229;BME280;65021;53.174;18.160;2023-12-20T10:10:27;99909.41;;;5.75;81.33
76229;BME280;65021;53.174;18.160;2023-12-20T10:13:04;99912.08;;;5.79;80.86
76229;BME280;65021;53.174;18.160;2023-12-20T10:15:33;99907.10;;;5.88;80.24
76229;BME280;65021;53.174;18.160;2023-12-20T10:18:00;99905.86;;;6.02;80.23
76229;BME280;65021;53.174;18.160;2023-12-20T10:20:28;99900.40;;;6.18;80.52
76229;BME280;65021;53.174;18.160;2023-12-20T10:22:56;99895.03;;;6.35;80.10
76229;BME280;65021;53.174;18.160;2023-12-20T10:25:24;99887.72;;;6.55;79.86
76229;BME280;65021;53.174;18.160;2023-12-20T10:28:12;99886.84;;;6.68;78.83
76229;BME280;65021;53.174;18.160;2023-12-20T10:30:40;99885.52;;;6.72;77.94
76229;BME280;65021;53.174;18.160;2023-12-20T10:33:07;99880.39;;;6.61;76.88
76229;BME280;65021;53.174;18.160;2023-12-20T10:35:35;99877.02;;;6.50;77.31
76229;BME280;65021;53.174;18.160;2023-12-20T10:38:05;99873.34;;;6.39;77.39
76229;BME280;65021;53.174;18.160;2023-12-20T10:40:36;99870.30;;;6.29;77.85
76229;BME280;65021;53.174;18.160;2023-12-20T10:43:04;99866.41;;;6.17;77.65
76229;BME280;65021;53.174;18.160;2023-12-20T10:45:31;99865.30;;;6.12;78.31
76229;BME280;65021;53.174;18.160;2023-12-20T10:47:58;99862.08;;;6.08;78.81
76229;BME280;65021;53.174;18.160;2023-12-20T10:50:28;99856.11;;;6.07;79.27
76229;BME280;65021;53.174;18.160;2023-12-20T10:52:55;99855.45;;;6.05;79.16
76229;BME280;65021;53.174;18.160;2023-12-20T10:55:25;99850.17;;;6.02;79.36
76229;BME280;65021;53.174;18.160;2023-12-20T10:57:54;99848.86;;;6.01;79.13
76229;BME280;65021;53.174;18.160;2023-12-20T11:00:29;99845.27;;;6.01;79.48
76229;BME280;65021;53.174;18.160;2023-12-20T11:03:00;99829.96;;;5.95;79.14
76229;BME280;65021;53.174;18.160;2023-12-20T11:08:32;99826.64;;;5.84;79.13
76229;BME280;65021;53.174;18.160;2023-12-20T11:11:04;99817.77;;;5.76;78.88
76229;BME280;65021;53.174;18.160;2023-12-20T11:13:36;99814.11;;;5.76;79.32
76229;BME280;65021;53.174;18.160;2023-12-20T11:16:04;99807.71;;;5.73;79.38
76229;BME280;65021;53.174;18.160;2023-12-20T11:18:31;99798.70;;;5.67;79.12
76229;BME280;65021;53.174;18.160;2023-12-20T11:21:02;99797.33;;;5.65;79.37
76229;BME280;65021;53.174;18.160;2023-12-20T11:23:32;99793.81;;;5.63;79.83
76229;BME280;65021;53.174;18.160;2023-12-20T11:26:01;99791.59;;;5.60;80.04
76229;BME280;65021;53.174;18.160;2023-12-20T11:28:29;99786.02;;;5.57;80.12
76229;BME280;65021;53.174;18.160;2023-12-20T11:31:00;99787.05;;;5.52;79.78
76229;BME280;65021;53.174;18.160;2023-12-20T11:33:36;99777.27;;;5.49;79.80
76229;BME280;65021;53.174;18.160;2023-12-20T11:36:03;99771.84;;;5.47;79.97
76229;BME280;65021;53.174;18.160;2023-12-20T11:38:57;99769.14;;;5.47;80.23
76229;BME280;65021;53.174;18.160;2023-12-20T11:41:25;99760.92;;;5.48;80.36
76229;BME280;65021;53.174;18.160;2023-12-20T11:43:55;99753.89;;;5.51;80.37
76229;BME280;65021;53.174;18.160;2023-12-20T11:46:22;99748.23;;;5.50;80.14
76229;BME280;65021;53.174;18.160;2023-12-20T11:48:50;99748.20;;;5.51;80.13
76229;BME280;65021;53.174;18.160;2023-12-20T11:51:19;99747.31;;;5.54;80.18
76229;BME280;65021;53.174;18.160;2023-12-20T11:53:50;99742.26;;;5.52;79.95
76229;BME280;65021;53.174;18.160;2023-12-20T11:56:17;99740.53;;;5.49;79.98
76229;BME280;65021;53.174;18.160;2023-12-20T11:58:44;99735.02;;;5.48;79.96
76229;BME280;65021;53.174;18.160;2023-12-20T12:01:10;99729.05;;;5.47;80.53
76229;BME280;65021;53.174;18.160;2023-12-20T12:03:37;99722.00;;;5.45;80.64
76229;BME280;65021;53.174;18.160;2023-12-20T12:06:04;99717.64;;;5.41;80.87
76229;BME280;65021;53.174;18.160;2023-12-20T12:08:31;99710.40;;;5.37;80.94
76229;BME280;65021;53.174;18.160;2023-12-20T12:10:57;99715.23;;;5.35;81.37
76229;BME280;65021;53.174;18.160;2023-12-20T12:13:24;99705.27;;;5.33;81.35
76229;BME280;65021;53.174;18.160;2023-12-20T12:15:53;99709.87;;;5.33;81.39
76229;BME280;65021;53.174;18.160;2023-12-20T12:18:20;99710.27;;;5.32;81.61
76229;BME280;65021;53.174;18.160;2023-12-20T12:20:47;99706.23;;;5.30;81.79
76229;BME280;65021;53.174;18.160;2023-12-20T12:23:13;99701.98;;;5.27;81.71
76229;BME280;65021;53.174;18.160;2023-12-20T12:25:40;99694.50;;;5.24;81.44
76229;BME280;65021;53.174;18.160;2023-12-20T12:28:07;99691.20;;;5.19;81.73
76229;BME280;65021;53.174;18.160;2023-12-20T12:30:34;99688.76;;;5.15;81.58
76229;BME280;65021;53.174;18.160;2023-12-20T12:33:00;99685.98;;;5.14;81.95
76229;BME280;65021;53.174;18.160;2023-12-20T12:35:27;99686.81;;;5.14;81.98
76229;BME280;65021;53.174;18.160;2023-12-20T12:37:54;99674.13;;;5.15;82.06
76229;BME280;65021;53.174;18.160;2023-12-20T12:40:20;99673.25;;;5.18;82.19
76229;BME280;65021;53.174;18.160;2023-12-20T12:42:47;99669.50;;;5.20;82.38
76229;BME280;65021;53.174;18.160;2023-12-20T12:45:14;99669.11;;;5.21;82.26
76229;BME280;65021;53.174;18.160;2023-12-20T12:47:41;99662.84;;;5.22;82.21
76229;BME280;65021;53.174;18.160;2023-12-20T12:50:08;99655.54;;;5.21;82.41
76229;BME280;65021;53.174;18.160;2023-12-20T12:52:34;99656.63;;;5.19;82.47
76229;BME280;65021;53.174;18.160;2023-12-20T12:55:01;99656.00;;;5.16;82.40
76229;BME280;65021;53.174;18.160;2023-12-20T12:57:29;99652.12;;;5.13;82.54
76229;BME280;65021;53.174;18.160;2023-12-20T12:59:56;99645.92;;;5.10;82.64